Time;durP1;ratioP1;P1;durP2;ratioP2;P2;SDS_P1;SDS_P2;PMS_P1;PMS_P2;Temp;Humidity;BMP_temperature;BMP_pressure;BME280_temperature;BME280_humidity;BME280_pressure;Samples;Min_cycle;Max_cycle;Signal;HPM_P1;HPM_P2
2023/07/18 00:00:32;;;;;;;4.55;1.50;;;17.00;93.30;;;;;;5034652;28;20128;-83
2023/07/18 00:02:59;;;;;;;5.43;1.40;;;17.00;93.30;;;;;;5035044;28;20037;-84
2023/07/18 00:05:25;;;;;;;3.90;1.50;;;17.00;93.30;;;;;;5018551;28;20124;-83
2023/07/18 00:07:51;;;;;;;4.50;1.85;;;17.00;93.40;;;;;;5034649;28;20156;-84
2023/07/18 00:10:19;;;;;;;2.92;1.20;;;17.00;93.40;;;;;;5035896;28;20108;-83
2023/07/18 00:12:45;;;;;;;3.30;1.40;;;17.00;93.40;;;;;;5035768;28;20404;-84
2023/07/18 00:15:13;;;;;;;5.57;1.73;;;17.00;93.50;;;;;;5002262;28;20025;-83
2023/07/18 00:17:40;;;;;;;3.33;1.20;;;17.00;93.50;;;;;;5034211;28;20022;-83
2023/07/18 00:20:12;;;;;;;3.17;1.35;;;17.00;93.70;;;;;;5034805;28;20531;-83
2023/07/18 00:22:40;;;;;;;2.63;1.40;;;17.00;93.40;;;;;;5034575;28;20026;-83
2023/07/18 00:25:10;;;;;;;2.88;1.30;;;17.00;93.40;;;;;;5034488;28;20473;-84
2023/07/18 00:27:47;;;;;;;2.95;1.40;;;17.00;93.40;;;;;;5034314;28;20021;-84
2023/07/18 00:30:13;;;;;;;5.50;1.58;;;17.00;93.50;;;;;;5033964;28;20034;-83
2023/07/18 00:32:40;;;;;;;3.55;1.33;;;17.00;93.40;;;;;;5034319;28;20022;-83
2023/07/18 00:35:06;;;;;;;5.18;1.40;;;17.00;93.40;;;;;;5036045;28;20064;-83
2023/07/18 00:37:32;;;;;;;3.10;1.23;;;17.00;93.40;;;;;;5034561;28;20068;-84
2023/07/18 00:39:58;;;;;;;2.72;1.60;;;17.00;93.40;;;;;;5018065;28;20408;-83
2023/07/18 00:42:23;;;;;;;1.98;1.23;;;17.00;93.40;;;;;;5042007;28;20093;-83
2023/07/18 00:44:50;;;;;;;2.15;1.20;;;17.00;93.40;;;;;;5059148;28;20037;-83
2023/07/18 00:47:19;;;;;;;4.55;1.45;;;16.90;93.40;;;;;;5059072;28;20037;-83
2023/07/18 00:49:46;;;;;;;4.90;1.52;;;16.90;93.40;;;;;;5058912;28;20005;-82
2023/07/18 00:52:13;;;;;;;3.83;1.70;;;16.90;93.40;;;;;;5058553;28;20059;-84
2023/07/18 00:54:39;;;;;;;2.47;1.23;;;16.90;93.40;;;;;;5036993;28;20032;-83
2023/07/18 00:57:07;;;;;;;3.80;1.48;;;16.90;93.50;;;;;;5034467;28;20075;-83
2023/07/18 00:59:33;;;;;;;3.10;1.50;;;16.90;93.50;;;;;;5034129;28;20060;-83
2023/07/18 01:01:59;;;;;;;6.90;1.80;;;16.80;93.40;;;;;;5034199;28;20033;-84
2023/07/18 01:04:24;;;;;;;2.58;1.30;;;16.80;93.40;;;;;;5033636;28;20366;-84
2023/07/18 01:06:54;;;;;;;4.28;1.48;;;16.80;93.40;;;;;;5033554;28;20036;-83
2023/07/18 01:09:19;;;;;;;3.30;1.35;;;16.80;93.50;;;;;;5033680;28;20032;-84
2023/07/18 01:11:45;;;;;;;3.42;1.50;;;16.80;93.60;;;;;;5033490;28;20041;-84
2023/07/18 01:14:11;;;;;;;3.42;1.40;;;16.70;93.60;;;;;;5033111;28;20041;-84
2023/07/18 01:16:36;;;;;;;3.58;1.48;;;16.70;93.60;;;;;;5016838;28;20052;-83
2023/07/18 01:19:02;;;;;;;3.20;1.40;;;16.70;93.60;;;;;;5033425;28;20029;-84
2023/07/18 01:21:31;;;;;;;2.63;1.23;;;16.70;93.70;;;;;;5017087;28;20037;-84
2023/07/18 01:23:56;;;;;;;2.13;1.33;;;16.60;93.70;;;;;;5032893;28;20045;-84
2023/07/18 01:26:22;;;;;;;3.75;1.55;;;16.60;93.70;;;;;;5016831;28;20083;-84
2023/07/18 01:28:47;;;;;;;4.20;1.58;;;16.60;93.70;;;;;;5033087;28;20037;-84
2023/07/18 01:31:13;;;;;;;2.30;1.35;;;16.50;93.70;;;;;;5032830;28;20037;-84
2023/07/18 01:33:42;;;;;;;2.72;1.30;;;16.50;93.70;;;;;;5016496;28;20029;-83
2023/07/18 01:36:07;;;;;;;1.58;1.05;;;16.50;93.60;;;;;;5016932;28;20433;-83
2023/07/18 01:38:34;;;;;;;3.17;1.00;;;16.40;93.60;;;;;;5032530;28;20092;-83
2023/07/18 01:41:00;;;;;;;3.03;1.52;;;16.40;93.70;;;;;;5034427;28;20037;-84
2023/07/18 01:43:26;;;;;;;2.70;1.20;;;16.40;93.70;;;;;;5016395;28;20465;-84
2023/07/18 01:45:57;;;;;;;1.83;1.15;;;16.40;93.80;;;;;;5016138;28;20040;-84
2023/07/18 01:48:22;;;;;;;3.13;1.40;;;16.40;93.80;;;;;;5032988;28;20362;-83
2023/07/18 01:50:48;;;;;;;3.05;1.20;;;16.30;94.10;;;;;;5032521;28;20077;-83
2023/07/18 01:53:13;;;;;;;3.15;1.23;;;16.30;93.80;;;;;;5016290;28;20033;-84
2023/07/18 01:55:40;;;;;;;3.15;1.50;;;16.30;93.80;;;;;;5016131;28;20133;-83
2023/07/18 01:58:05;;;;;;;2.60;1.20;;;16.20;93.90;;;;;;5032763;28;20036;-84
2023/07/18 02:00:32;;;;;;;1.95;1.10;;;16.20;93.90;;;;;;5016118;28;20038;-84
2023/07/18 02:03:01;;;;;;;2.55;1.50;;;16.10;93.90;;;;;;5015778;28;20079;-84
2023/07/18 02:05:30;;;;;;;2.58;1.48;;;16.10;94.00;;;;;;5032316;28;20025;-83
2023/07/18 02:07:57;;;;;;;3.08;1.38;;;16.10;93.90;;;;;;5032635;28;20029;-83
2023/07/18 02:10:24;;;;;;;4.93;1.25;;;16.00;93.90;;;;;;5032561;28;20048;-83
2023/07/18 02:12:53;;;;;;;2.53;1.30;;;16.00;94.00;;;;;;5033951;28;20036;-83
2023/07/18 02:15:20;;;;;;;3.67;1.42;;;16.00;94.00;;;;;;5032967;28;20362;-83
2023/07/18 02:17:47;;;;;;;2.00;1.27;;;16.00;94.00;;;;;;5032522;28;20076;-83
2023/07/18 02:20:14;;;;;;;2.35;1.20;;;16.00;94.00;;;;;;5032527;28;20049;-83
2023/07/18 02:22:41;;;;;;;2.60;1.20;;;16.00;94.00;;;;;;5032586;28;20124;-83
2023/07/18 02:25:07;;;;;;;4.28;1.30;;;16.00;94.10;;;;;;5034907;28;20022;-84
2023/07/18 02:27:34;;;;;;;3.53;1.63;;;15.90;94.10;;;;;;5034012;28;20044;-84
2023/07/18 02:30:01;;;;;;;2.65;1.30;;;15.90;94.10;;;;;;5036885;28;20040;-83
2023/07/18 02:32:31;;;;;;;2.25;1.33;;;15.90;94.00;;;;;;5056724;28;20022;-83
2023/07/18 02:34:57;;;;;;;4.63;1.92;;;15.80;94.10;;;;;;5056996;28;20081;-82
2023/07/18 02:37:25;;;;;;;3.03;1.40;;;15.80;94.10;;;;;;5040973;28;20026;-83
2023/07/18 02:39:53;;;;;;;2.42;1.50;;;15.90;94.10;;;;;;5029784;28;20453;-83
2023/07/18 02:42:19;;;;;;;5.20;1.30;;;15.80;94.10;;;;;;5016827;28;20354;-83
2023/07/18 02:44:48;;;;;;;4.72;1.83;;;15.80;94.20;;;;;;5016215;28;20037;-83
2023/07/18 02:47:14;;;;;;;3.38;1.60;;;15.80;94.20;;;;;;5031661;28;20382;-83
2023/07/18 02:49:40;;;;;;;3.42;1.48;;;15.80;94.30;;;;;;5032279;28;20032;-83
2023/07/18 02:52:07;;;;;;;3.22;1.42;;;15.80;94.30;;;;;;5015758;28;20037;-83
2023/07/18 02:54:32;;;;;;;1.70;1.52;;;15.80;94.30;;;;;;5032345;28;20076;-84
2023/07/18 02:56:59;;;;;;;2.60;1.45;;;15.70;94.30;;;;;;5033151;28;20029;-83
2023/07/18 02:59:26;;;;;;;4.03;1.40;;;15.70;94.30;;;;;;5015720;28;20051;-83
2023/07/18 03:01:57;;;;;;;4.78;1.70;;;15.70;94.40;;;;;;5015844;28;20123;-83
2023/07/18 03:04:24;;;;;;;3.25;1.58;;;15.70;94.40;;;;;;5032179;28;20428;-83
2023/07/18 03:06:52;;;;;;;3.17;1.90;;;15.70;94.30;;;;;;5031968;28;20033;-84
2023/07/18 03:09:19;;;;;;;3.70;1.55;;;15.70;94.40;;;;;;5033236;28;20457;-83
2023/07/18 03:11:46;;;;;;;5.10;1.42;;;15.70;94.40;;;;;;5031977;28;20025;-83
2023/07/18 03:14:11;;;;;;;2.80;1.25;;;15.70;94.40;;;;;;5032048;28;20535;-83
2023/07/18 03:16:40;;;;;;;5.28;2.20;;;15.70;94.50;;;;;;5015547;28;20033;-83
2023/07/18 03:19:08;;;;;;;4.53;1.70;;;15.60;94.50;;;;;;5031772;28;20080;-84
2023/07/18 03:21:34;;;;;;;4.53;1.52;;;15.60;94.50;;;;;;5032145;28;20029;-84
2023/07/18 03:24:00;;;;;;;2.78;1.65;;;15.60;94.50;;;;;;5032043;28;20094;-83
2023/07/18 03:26:26;;;;;;;4.05;1.95;;;15.60;94.50;;;;;;5035620;28;20033;-84
2023/07/18 03:28:53;;;;;;;5.07;2.15;;;15.50;94.50;;;;;;5036728;28;20024;-83
2023/07/18 03:31:19;;;;;;;3.10;1.40;;;15.60;94.60;;;;;;5035500;28;20040;-84
2023/07/18 03:33:44;;;;;;;3.47;1.60;;;15.50;94.60;;;;;;5035572;28;20038;-84
2023/07/18 03:36:10;;;;;;;2.78;1.63;;;15.50;94.60;;;;;;5036388;28;20029;-84
2023/07/18 03:38:36;;;;;;;2.97;1.67;;;15.50;94.70;;;;;;5018769;28;20072;-83
2023/07/18 03:41:01;;;;;;;5.18;2.03;;;15.50;94.70;;;;;;5035441;28;20416;-84
2023/07/18 03:43:27;;;;;;;3.53;1.55;;;15.40;94.70;;;;;;5035753;28;20075;-83
2023/07/18 03:45:53;;;;;;;3.35;1.50;;;15.40;94.80;;;;;;5035153;28;20017;-83
2023/07/18 03:48:19;;;;;;;4.50;1.77;;;15.40;94.80;;;;;;5018714;28;20053;-84
2023/07/18 03:50:45;;;;;;;3.75;2.03;;;15.40;94.80;;;;;;5035000;28;20037;-84
2023/07/18 03:53:11;;;;;;;2.90;1.70;;;15.40;94.80;;;;;;5018594;28;20040;-84
2023/07/18 03:55:36;;;;;;;5.20;2.17;;;15.30;94.80;;;;;;5036586;28;20022;-84
2023/07/18 03:58:02;;;;;;;2.92;1.88;;;15.30;94.90;;;;;;5035027;28;20377;-84
2023/07/18 04:00:28;;;;;;;2.55;1.30;;;15.30;94.90;;;;;;5035150;28;20029;-84
2023/07/18 04:02:54;;;;;;;2.88;1.75;;;15.30;94.90;;;;;;5018379;28;20045;-84
2023/07/18 04:05:20;;;;;;;2.72;1.33;;;15.30;95.00;;;;;;5035229;28;20030;-83
2023/07/18 04:07:46;;;;;;;3.80;1.70;;;15.30;95.00;;;;;;5018423;28;20389;-84
2023/07/18 04:10:12;;;;;;;3.55;1.95;;;15.30;95.00;;;;;;5036762;28;20111;-83
2023/07/18 04:12:39;;;;;;;3.88;1.55;;;15.30;95.00;;;;;;5044116;28;20013;-83
2023/07/18 04:15:07;;;;;;;2.53;1.70;;;15.30;95.00;;;;;;5060101;28;20052;-83
2023/07/18 04:17:33;;;;;;;3.70;1.88;;;15.30;95.10;;;;;;5042635;28;20022;-84
2023/07/18 04:20:01;;;;;;;2.65;1.63;;;15.30;95.10;;;;;;5042729;28;20020;-82
2023/07/18 04:22:29;;;;;;;2.72;1.77;;;15.30;95.10;;;;;;5042600;28;20006;-83
2023/07/18 04:24:55;;;;;;;5.00;1.88;;;15.30;95.10;;;;;;5037006;28;20053;-83
2023/07/18 04:27:21;;;;;;;4.30;1.67;;;15.30;95.10;;;;;;5035203;28;20033;-83
2023/07/18 04:29:46;;;;;;;4.25;2.10;;;15.30;95.10;;;;;;5018178;28;20033;-83
2023/07/18 04:32:12;;;;;;;3.53;2.00;;;15.30;95.20;;;;;;5034315;28;20481;-83
2023/07/18 04:34:38;;;;;;;3.00;1.95;;;15.30;95.20;;;;;;5016816;28;20052;-84
2023/07/18 04:37:04;;;;;;;3.08;1.90;;;15.30;95.20;;;;;;5034046;28;20025;-84
2023/07/18 04:39:30;;;;;;;3.88;1.90;;;15.30;95.30;;;;;;5034071;28;20050;-83
2023/07/18 04:41:56;;;;;;;4.57;1.80;;;15.30;95.30;;;;;;5034965;28;20026;-83
2023/07/18 04:44:22;;;;;;;2.78;1.80;;;15.30;95.30;;;;;;5033769;28;20036;-84
2023/07/18 04:46:48;;;;;;;2.72;1.80;;;15.30;95.30;;;;;;5017165;28;20025;-84
2023/07/18 04:49:14;;;;;;;4.15;1.80;;;15.40;95.40;;;;;;5033857;28;20453;-84
2023/07/18 04:51:39;;;;;;;3.05;1.75;;;15.40;95.40;;;;;;5033760;28;20025;-84
2023/07/18 04:54:06;;;;;;;3.28;2.03;;;15.40;95.40;;;;;;5033857;28;20424;-84
2023/07/18 04:56:32;;;;;;;3.70;2.10;;;15.40;95.50;;;;;;5017399;28;20026;-84
2023/07/18 04:59:00;;;;;;;2.22;1.60;;;15.40;95.60;;;;;;5033660;28;20076;-83
2023/07/18 05:01:28;;;;;;;4.65;1.90;;;15.50;95.70;;;;;;5017634;28;20124;-85
2023/07/18 05:03:55;;;;;;;3.92;2.08;;;15.50;95.70;;;;;;5033568;28;20109;-84
2023/07/18 05:06:20;;;;;;;4.60;2.17;;;15.50;95.80;;;;;;5016758;28;20045;-84
2023/07/18 05:08:46;;;;;;;6.13;2.90;;;15.60;95.90;;;;;;5017126;28;20496;-84
2023/07/18 05:11:12;;;;;;;3.97;2.30;;;15.60;95.90;;;;;;5033740;28;20029;-85
2023/07/18 05:13:38;;;;;;;2.95;2.20;;;15.70;95.90;;;;;;5033227;28;20121;-84
2023/07/18 05:16:04;;;;;;;4.47;2.92;;;15.70;96.00;;;;;;5016721;28;20053;-84
2023/07/18 05:18:30;;;;;;;8.02;2.50;;;15.70;96.00;;;;;;5033422;28;20473;-84
2023/07/18 05:20:57;;;;;;;4.15;2.63;;;15.80;96.00;;;;;;5016917;28;20068;-84
2023/07/18 05:23:22;;;;;;;3.63;2.58;;;15.80;96.00;;;;;;5034326;28;20028;-83
2023/07/18 05:25:48;;;;;;;4.22;2.72;;;15.90;95.90;;;;;;5016965;28;20021;-84
2023/07/18 05:28:14;;;;;;;4.75;2.90;;;15.90;96.20;;;;;;5032863;28;20026;-84
2023/07/18 05:30:40;;;;;;;6.10;3.08;;;16.00;95.90;;;;;;5034323;28;20038;-85
2023/07/18 05:33:06;;;;;;;3.90;2.83;;;16.10;95.80;;;;;;5032974;28;20042;-84
2023/07/18 05:35:32;;;;;;;4.47;3.20;;;16.10;95.70;;;;;;5016698;28;20560;-84
2023/07/18 05:37:57;;;;;;;5.57;3.03;;;16.20;95.70;;;;;;5019735;28;20128;-84
2023/07/18 05:40:23;;;;;;;7.43;3.95;;;16.30;95.70;;;;;;5036405;28;20374;-84
2023/07/18 05:42:49;;;;;;;4.97;3.13;;;16.30;95.70;;;;;;5036139;28;20048;-84
2023/07/18 05:45:15;;;;;;;3.90;3.40;;;16.40;95.70;;;;;;5036518;28;20025;-84
2023/07/18 05:47:41;;;;;;;5.88;3.85;;;16.40;95.80;;;;;;5019847;28;20499;-84
2023/07/18 05:50:07;;;;;;;5.65;3.30;;;16.40;95.80;;;;;;5036372;28;20037;-84
2023/07/18 05:52:33;;;;;;;5.75;3.70;;;16.50;95.80;;;;;;5037229;28;20460;-83
2023/07/18 05:54:59;;;;;;;5.20;3.80;;;16.50;95.80;;;;;;5037171;28;20143;-84
2023/07/18 05:57:25;;;;;;;6.72;3.80;;;16.60;95.80;;;;;;5041636;28;20027;-83
2023/07/18 05:59:50;;;;;;;3.95;2.88;;;16.60;95.80;;;;;;5060508;28;20009;-84
2023/07/18 06:02:16;;;;;;;4.95;3.22;;;16.70;95.80;;;;;;5061059;28;20083;-83
2023/07/18 06:04:42;;;;;;;5.07;3.40;;;16.70;95.70;;;;;;5056437;28;20025;-84
2023/07/18 06:07:08;;;;;;;6.15;3.67;;;16.70;95.70;;;;;;5073339;28;20059;-83
2023/07/18 06:09:33;;;;;;;5.60;3.38;;;16.80;95.70;;;;;;5038897;28;20031;-84
2023/07/18 06:11:59;;;;;;;5.93;3.40;;;16.90;95.70;;;;;;5036450;28;20060;-84
2023/07/18 06:14:26;;;;;;;3.65;3.08;;;17.00;95.60;;;;;;5036053;28;20052;-84
2023/07/18 06:16:52;;;;;;;3.65;3.22;;;17.00;95.60;;;;;;5019885;28;20033;-84
2023/07/18 06:19:17;;;;;;;4.90;2.92;;;17.10;95.50;;;;;;5036131;28;20070;-84
2023/07/18 06:21:43;;;;;;;4.88;3.03;;;17.10;95.50;;;;;;5036110;28;20388;-84
2023/07/18 06:24:09;;;;;;;4.90;2.78;;;17.20;95.40;;;;;;5035883;28;20394;-84
2023/07/18 06:26:35;;;;;;;5.15;2.53;;;17.20;95.30;;;;;;5036183;28;20203;-84
2023/07/18 06:29:01;;;;;;;4.38;2.78;;;17.20;95.30;;;;;;5035831;28;20074;-84
2023/07/18 06:31:28;;;;;;;4.82;2.83;;;17.30;95.30;;;;;;5035490;28;20087;-84
2023/07/18 06:33:54;;;;;;;3.50;2.50;;;17.30;95.20;;;;;;5035735;28;20029;-84
2023/07/18 06:36:23;;;;;;;4.90;3.00;;;17.40;95.20;;;;;;5019282;28;20017;-84
2023/07/18 06:38:49;;;;;;;4.53;3.20;;;17.40;95.10;;;;;;5035898;28;20056;-85
2023/07/18 06:41:15;;;;;;;5.18;3.10;;;17.50;95.10;;;;;;5036070;28;20044;-84
2023/07/18 06:43:40;;;;;;;4.15;2.42;;;17.50;95.00;;;;;;5036301;28;20060;-84
2023/07/18 06:46:08;;;;;;;7.65;3.42;;;17.60;95.00;;;;;;5019453;28;20033;-84
2023/07/18 06:48:33;;;;;;;6.05;2.92;;;17.70;95.00;;;;;;5035712;28;20025;-84
2023/07/18 06:51:01;;;;;;;7.20;3.15;;;17.70;94.90;;;;;;5035407;28;20465;-84
2023/07/18 06:53:27;;;;;;;5.65;3.10;;;17.80;94.80;;;;;;5035277;28;20029;-84
2023/07/18 06:55:53;;;;;;;3.53;2.67;;;17.80;94.70;;;;;;5035456;28;20026;-85
2023/07/18 06:58:19;;;;;;;6.35;3.22;;;17.90;94.60;;;;;;5018991;28;20112;-84
2023/07/18 07:00:46;;;;;;;3.80;2.53;;;17.90;94.40;;;;;;5021922;28;20110;-84
2023/07/18 07:03:12;;;;;;;5.63;3.08;;;18.10;94.40;;;;;;5057367;28;20029;-84
2023/07/18 07:05:39;;;;;;;5.65;3.38;;;18.10;94.40;;;;;;5057025;28;20353;-84
2023/07/18 07:08:09;;;;;;;5.38;2.63;;;18.20;94.30;;;;;;5022738;28;20052;-84
2023/07/18 07:10:39;;;;;;;5.80;2.97;;;18.30;94.20;;;;;;5057077;28;20644;-84
2023/07/18 07:13:05;;;;;;;3.15;2.38;;;18.40;94.10;;;;;;5023054;28;20021;-84
2023/07/18 07:15:32;;;;;;;5.65;2.53;;;18.40;94.00;;;;;;5056655;28;20021;-84
2023/07/18 07:17:58;;;;;;;4.32;2.30;;;18.60;94.00;;;;;;5039178;28;20368;-84
2023/07/18 07:20:25;;;;;;;4.72;2.35;;;18.60;93.80;;;;;;5056601;28;20039;-84
2023/07/18 07:22:52;;;;;;;5.28;2.10;;;18.70;93.70;;;;;;5039219;28;20029;-84
2023/07/18 07:25:19;;;;;;;4.20;1.80;;;18.70;93.60;;;;;;5038593;28;20021;-84
2023/07/18 07:27:46;;;;;;;5.00;2.60;;;18.80;93.50;;;;;;5038769;28;20032;-85
2023/07/18 07:30:16;;;;;;;4.20;2.30;;;18.80;93.60;;;;;;5022537;28;20036;-85
2023/07/18 07:32:47;;;;;;;3.88;2.10;;;18.90;93.60;;;;;;5038708;28;20029;-84
2023/07/18 07:35:14;;;;;;;3.35;2.47;;;19.00;93.50;;;;;;5022464;28;20047;-84
2023/07/18 07:37:40;;;;;;;4.97;2.50;;;19.10;93.40;;;;;;5038322;28;20021;-84
2023/07/18 07:40:11;;;;;;;3.00;2.40;;;19.10;93.20;;;;;;5038736;28;20048;-84
2023/07/18 07:42:38;;;;;;;4.57;2.95;;;19.20;93.40;;;;;;5038899;28;20418;-84
2023/07/18 07:45:05;;;;;;;5.20;2.60;;;19.20;93.00;;;;;;5056509;28;20445;-85
2023/07/18 07:47:30;;;;;;;3.78;2.20;;;19.30;92.80;;;;;;5021959;28;20025;-84
2023/07/18 07:49:56;;;;;;;3.80;2.33;;;19.30;92.60;;;;;;5038411;28;20122;-85
2023/07/18 07:52:22;;;;;;;3.63;1.85;;;19.40;92.70;;;;;;5038660;28;20036;-84
2023/07/18 07:54:50;;;;;;;3.30;1.90;;;19.50;92.60;;;;;;5038448;28;20037;-84
2023/07/18 07:57:16;;;;;;;3.90;1.85;;;19.60;92.50;;;;;;5039005;28;20029;-84
2023/07/18 08:00:04;;;;;;;3.22;1.65;;;19.60;92.50;;;;;;5021751;28;20029;-84
2023/07/18 08:02:30;;;;;;;2.50;1.58;;;19.70;92.40;;;;;;5037351;28;20037;-84
2023/07/18 08:04:56;;;;;;;3.05;1.65;;;19.80;92.30;;;;;;5038347;28;20358;-85
2023/07/18 08:07:22;;;;;;;4.35;1.58;;;19.80;92.20;;;;;;5038436;28;20052;-83
2023/07/18 08:09:47;;;;;;;3.47;1.80;;;19.90;92.20;;;;;;5038199;28;20060;-85
2023/07/18 08:12:13;;;;;;;3.08;1.67;;;20.00;92.10;;;;;;5021903;28;20056;-84
2023/07/18 08:14:39;;;;;;;3.60;1.60;;;20.00;92.00;;;;;;5022150;28;20110;-85
2023/07/18 08:17:07;;;;;;;3.63;1.40;;;20.10;91.80;;;;;;5062388;28;20067;-85
2023/07/18 08:19:36;;;;;;;3.42;1.50;;;20.20;91.70;;;;;;5061864;28;20009;-84
2023/07/18 08:22:02;;;;;;;3.63;1.70;;;20.20;91.30;;;;;;5080191;28;20025;-84
2023/07/18 08:24:29;;;;;;;2.75;1.20;;;20.30;91.40;;;;;;5062418;28;20010;-84
2023/07/18 08:26:55;;;;;;;4.65;1.13;;;20.30;91.30;;;;;;5041543;28;20036;-84
2023/07/18 08:29:32;;;;;;;2.65;1.20;;;20.40;90.90;;;;;;5024136;28;20031;-85
2023/07/18 08:32:00;;;;;;;1.23;0.80;;;20.40;90.70;;;;;;5038381;28;20032;-84
2023/07/18 08:34:26;;;;;;;1.92;1.05;;;20.50;91.10;;;;;;5038071;28;20106;-85
2023/07/18 08:36:52;;;;;;;2.75;1.10;;;20.60;90.80;;;;;;5038187;28;20453;-85
2023/07/18 08:39:18;;;;;;;1.50;0.90;;;20.60;90.80;;;;;;5020765;28;20053;-85
2023/07/18 08:41:45;;;;;;;2.08;1.13;;;20.70;90.70;;;;;;5020965;28;20259;-85
2023/07/18 08:44:16;;;;;;;2.55;0.98;;;20.80;90.60;;;;;;5037533;28;20380;-85
2023/07/18 08:46:45;;;;;;;3.17;1.02;;;20.80;90.50;;;;;;5037465;28;20025;-85
2023/07/18 08:49:14;;;;;;;1.90;0.90;;;20.90;90.40;;;;;;5055199;28;20027;-84
2023/07/18 08:51:41;;;;;;;2.40;0.93;;;21.00;90.30;;;;;;5054980;28;20024;-85
2023/07/18 08:54:07;;;;;;;1.02;0.90;;;21.00;90.30;;;;;;5055037;28;20017;-85
2023/07/18 08:56:33;;;;;;;2.53;0.85;;;21.10;90.10;;;;;;5037171;28;20538;-85
2023/07/18 08:59:01;;;;;;;1.92;0.90;;;21.20;90.10;;;;;;5020968;28;20481;-84
2023/07/18 09:01:26;;;;;;;1.35;0.77;;;21.20;89.90;;;;;;5037151;28;20032;-84
2023/07/18 09:03:55;;;;;;;1.48;0.65;;;21.30;89.60;;;;;;5020525;28;20025;-84
2023/07/18 09:06:21;;;;;;;2.88;0.90;;;21.30;89.00;;;;;;5020558;28;20036;-85
2023/07/18 09:08:48;;;;;;;1.25;0.60;;;21.30;88.70;;;;;;5020296;28;20029;-86
2023/07/18 09:11:18;;;;;;;2.00;0.70;;;21.40;88.80;;;;;;5037156;28;20037;-86
2023/07/18 09:13:44;;;;;;;1.80;0.70;;;21.50;88.50;;;;;;5054666;28;20029;-85
2023/07/18 09:16:19;;;;;;;2.85;1.02;;;21.50;87.90;;;;;;5036956;28;20441;-85
2023/07/18 09:18:49;;;;;;;1.35;0.70;;;21.60;87.80;;;;;;5036593;28;20078;-85
2023/07/18 09:21:15;;;;;;;2.33;0.60;;;21.70;87.40;;;;;;5036456;28;20057;-85
2023/07/18 09:23:42;;;;;;;1.55;0.70;;;21.80;87.30;;;;;;5019633;28;20215;-85
2023/07/18 09:26:10;;;;;;;2.03;0.77;;;21.80;86.60;;;;;;5020121;28;20025;-85
2023/07/18 09:28:42;;;;;;;2.38;0.68;;;21.80;86.00;;;;;;5020380;28;20029;-85
2023/07/18 09:31:21;;;;;;;1.30;0.65;;;21.90;86.00;;;;;;5036924;28;20082;-85
2023/07/18 09:33:48;;;;;;;1.17;0.70;;;22.00;85.60;;;;;;5036399;28;20075;-85
2023/07/18 09:36:18;;;;;;;1.80;0.50;;;22.00;85.70;;;;;;5054367;28;20028;-85
2023/07/18 09:38:46;;;;;;;2.00;0.80;;;22.10;85.00;;;;;;5019609;28;20053;-85
2023/07/18 09:41:12;;;;;;;2.35;0.63;;;22.10;84.20;;;;;;5020277;28;20120;-85
2023/07/18 09:43:41;;;;;;;1.40;0.50;;;22.10;84.30;;;;;;5019872;28;20036;-85
2023/07/18 09:46:10;;;;;;;1.65;0.70;;;22.20;84.60;;;;;;5036267;28;20480;-84
2023/07/18 09:48:37;;;;;;;1.85;0.60;;;22.20;84.20;;;;;;5053834;28;20041;-85
2023/07/18 09:51:05;;;;;;;1.92;0.45;;;22.20;83.80;;;;;;5053925;28;20404;-85
2023/07/18 09:53:35;;;;;;;0.75;0.60;;;22.30;83.80;;;;;;5053918;28;20028;-85
2023/07/18 09:56:04;;;;;;;0.77;0.50;;;22.30;83.60;;;;;;5036257;28;20021;-85
2023/07/18 09:58:32;;;;;;;0.60;0.40;;;22.30;83.50;;;;;;5054289;28;20025;-86
2023/07/18 10:00:59;;;;;;;0.70;0.47;;;22.30;83.60;;;;;;5036129;28;20037;-85
2023/07/18 10:03:25;;;;;;;1.55;0.68;;;22.40;83.50;;;;;;5036190;28;20061;-85
2023/07/18 10:05:51;;;;;;;1.00;0.50;;;22.50;83.10;;;;;;5019651;28;20064;-84
2023/07/18 10:08:17;;;;;;;1.13;0.40;;;22.50;83.10;;;;;;5055266;28;20056;-85
2023/07/18 10:11:03;;;;;;;1.80;0.57;;;22.60;83.30;;;;;;5020652;28;20040;-85
2023/07/18 10:13:30;;;;;;;0.73;0.50;;;22.60;82.80;;;;;;5042182;28;20033;-85
2023/07/18 10:16:15;;;;;;;1.73;0.50;;;22.70;82.30;;;;;;5043041;28;20025;-85
2023/07/18 10:18:45;;;;;;;0.60;0.40;;;22.70;82.10;;;;;;5060139;28;20029;-84
2023/07/18 10:21:38;;;;;;;1.02;0.60;;;22.70;82.20;;;;;;5043439;28;20100;-85
2023/07/18 10:24:23;;;;;;;1.08;0.38;;;22.80;81.20;;;;;;5035350;28;20076;-85
2023/07/18 10:26:52;;;;;;;0.50;0.30;;;22.80;80.80;;;;;;5042396;28;20054;-85
2023/07/18 10:29:18;;;;;;;1.52;0.45;;;22.90;80.70;;;;;;5054113;28;20025;-85
2023/07/18 10:31:45;;;;;;;1.33;0.50;;;22.90;80.60;;;;;;5019367;28;20079;-85
2023/07/18 10:34:11;;;;;;;1.48;0.50;;;23.00;80.60;;;;;;5037806;28;20033;-85
2023/07/18 10:36:38;;;;;;;1.10;0.45;;;23.00;80.60;;;;;;5039956;28;20043;-85
2023/07/18 10:39:12;;;;;;;1.17;0.40;;;23.00;80.00;;;;;;5039170;28;20055;-85
2023/07/18 10:41:45;;;;;;;0.63;0.30;;;23.00;79.60;;;;;;5023602;28;20067;-85
2023/07/18 10:44:14;;;;;;;1.05;0.50;;;23.10;79.60;;;;;;5039741;28;20036;-85
2023/07/18 10:46:40;;;;;;;1.38;0.43;;;23.10;78.90;;;;;;5039514;28;20068;-84
2023/07/18 10:49:07;;;;;;;1.08;0.57;;;23.10;78.80;;;;;;5023456;28;20119;-85
2023/07/18 10:51:36;;;;;;;1.08;0.50;;;23.10;78.20;;;;;;5039485;28;20033;-85
2023/07/18 10:54:02;;;;;;;0.85;0.50;;;23.20;78.00;;;;;;5039083;28;20029;-85
2023/07/18 10:56:30;;;;;;;1.00;0.50;;;23.20;77.90;;;;;;5057417;28;20143;-85
2023/07/18 10:58:56;;;;;;;0.70;0.30;;;23.30;78.10;;;;;;5022671;28;20048;-85
2023/07/18 11:01:27;;;;;;;1.25;0.43;;;23.30;77.90;;;;;;5057420;28;20017;-85
2023/07/18 11:03:52;;;;;;;1.75;0.45;;;23.30;77.00;;;;;;5056676;28;20495;-85
2023/07/18 11:06:21;;;;;;;2.58;0.50;;;23.40;76.70;;;;;;5056934;28;20029;-85
2023/07/18 11:08:47;;;;;;;1.33;0.52;;;23.40;76.60;;;;;;5023085;28;20112;-84
2023/07/18 11:11:18;;;;;;;0.85;0.50;;;23.40;76.60;;;;;;5056623;28;20451;-85
2023/07/18 11:13:47;;;;;;;1.33;0.70;;;23.50;76.80;;;;;;5057044;28;20057;-85
2023/07/18 11:16:15;;;;;;;1.20;0.57;;;23.50;77.00;;;;;;5038908;28;20538;-85
2023/07/18 11:18:46;;;;;;;0.85;0.40;;;23.50;77.20;;;;;;5038961;28;20071;-85
2023/07/18 11:21:13;;;;;;;0.77;0.30;;;23.50;76.90;;;;;;5039080;28;20468;-85
2023/07/18 11:23:40;;;;;;;2.28;0.40;;;23.60;76.60;;;;;;5056962;28;20066;-85
2023/07/18 11:26:09;;;;;;;1.00;0.52;;;23.60;76.00;;;;;;5056596;28;20033;-85
2023/07/18 11:28:36;;;;;;;0.70;0.43;;;23.60;75.60;;;;;;5022496;28;20384;-85
2023/07/18 11:31:01;;;;;;;1.08;0.52;;;23.70;75.80;;;;;;5038638;28;20029;-85
2023/07/18 11:33:34;;;;;;;1.23;0.47;;;23.70;75.80;;;;;;5022379;28;20025;-85
2023/07/18 11:36:00;;;;;;;1.05;0.60;;;23.70;75.60;;;;;;5038946;28;20029;-85
2023/07/18 11:38:29;;;;;;;1.70;0.63;;;23.80;75.30;;;;;;5038636;28;20053;-85
2023/07/18 11:40:55;;;;;;;1.10;0.60;;;23.80;74.60;;;;;;5022328;28;20036;-85
2023/07/18 11:43:21;;;;;;;1.20;0.70;;;23.80;73.90;;;;;;5022248;28;20400;-85
2023/07/18 11:45:47;;;;;;;1.25;0.75;;;23.80;74.10;;;;;;5021448;28;20426;-85
2023/07/18 11:48:13;;;;;;;1.73;0.70;;;23.70;73.90;;;;;;5039131;28;20036;-85
2023/07/18 11:50:45;;;;;;;1.60;0.50;;;23.70;74.20;;;;;;5056649;28;20056;-85
2023/07/18 11:53:13;;;;;;;1.33;0.30;;;23.80;74.40;;;;;;5038360;28;20025;-85
2023/07/18 11:55:39;;;;;;;1.60;0.60;;;23.90;74.60;;;;;;5039020;28;20029;-85
2023/07/18 11:58:07;;;;;;;1.33;0.40;;;23.90;74.70;;;;;;5021904;28;20032;-85
2023/07/18 12:00:36;;;;;;;1.05;0.60;;;24.00;74.40;;;;;;5056864;28;20097;-85
2023/07/18 12:03:05;;;;;;;1.35;0.52;;;24.00;73.90;;;;;;5038291;28;20376;-85
2023/07/18 12:05:31;;;;;;;1.45;0.60;;;24.10;73.70;;;;;;5039453;28;20061;-86
2023/07/18 12:07:57;;;;;;;1.40;0.73;;;24.10;73.40;;;;;;5022610;28;20106;-83
2023/07/18 12:10:22;;;;;;;1.58;0.85;;;24.20;73.40;;;;;;5039870;28;20033;-85
2023/07/18 12:12:48;;;;;;;3.25;0.90;;;24.20;73.50;;;;;;5024797;28;20030;-85
2023/07/18 12:15:14;;;;;;;1.25;0.70;;;24.20;73.40;;;;;;5057084;28;20021;-84
2023/07/18 12:17:40;;;;;;;1.08;0.57;;;24.20;73.30;;;;;;5079709;28;20093;-86
2023/07/18 12:20:07;;;;;;;0.88;0.52;;;24.30;72.60;;;;;;5046239;28;20029;-86
2023/07/18 12:22:33;;;;;;;0.88;0.60;;;24.20;73.10;;;;;;5079986;28;20077;-84
2023/07/18 12:25:01;;;;;;;0.77;0.68;;;24.30;73.30;;;;;;5045110;28;20029;-86
2023/07/18 12:27:27;;;;;;;0.63;0.55;;;24.30;73.10;;;;;;5046896;28;20028;-85
2023/07/18 12:29:53;;;;;;;0.60;0.50;;;24.30;73.00;;;;;;5023542;28;20020;-85
2023/07/18 12:32:18;;;;;;;1.02;0.50;;;24.20;72.40;;;;;;5038397;28;20033;-84
2023/07/18 12:34:44;;;;;;;1.27;0.70;;;24.20;72.00;;;;;;5055942;28;20114;-85
2023/07/18 12:37:10;;;;;;;1.27;0.65;;;24.20;71.80;;;;;;5021223;28;20025;-85
2023/07/18 12:39:35;;;;;;;0.60;0.30;;;24.20;71.10;;;;;;5033973;28;20523;-84
2023/07/18 12:42:01;;;;;;;0.45;0.40;;;24.20;71.00;;;;;;5034219;28;20040;-85
2023/07/18 12:44:38;;;;;;;0.68;0.50;;;24.20;71.00;;;;;;5034207;28;20033;-84
2023/07/18 12:47:04;;;;;;;1.05;0.60;;;24.20;70.20;;;;;;5033982;28;20021;-84